Time;durP1;ratioP1;P1;durP2;ratioP2;P2;SDS_P1;SDS_P2;PMS_P1;PMS_P2;Temp;Humidity;BMP_temperature;BMP_pressure;BME280_temperature;BME280_humidity;BME280_pressure;Samples;Min_cycle;Max_cycle;Signal;HPM_P1;HPM_P2
2023/05/17 00:01:16;;;;;;;3.30;2.00;;;;;;;;;;5051986;28;20045;-76
2023/05/17 00:03:43;;;;;;;5.60;2.28;;;;;;;;;;5051448;28;20053;-77
2023/05/17 00:06:10;;;;;;;5.13;2.30;;;;;;;;;;5052037;28;20063;-77
2023/05/17 00:08:38;;;;;;;4.53;1.88;;;;;;;;;;5051573;28;20132;-77
2023/05/17 00:11:04;;;;;;;5.85;2.17;;;;;;;;;;5054526;28;20123;-77
2023/05/17 00:13:31;;;;;;;7.35;2.58;;;;;;;;;;5055430;28;20147;-78
2023/05/17 00:15:58;;;;;;;6.10;2.13;;;;;;;;;;5055567;28;20570;-77
2023/05/17 00:18:24;;;;;;;4.70;1.98;;;;;;;;;;5055492;28;20127;-78
2023/05/17 00:20:51;;;;;;;5.40;2.35;;;;;;;;;;5055545;28;20059;-78
2023/05/17 00:23:17;;;;;;;6.30;2.58;;;;;;;;;;5054959;28;20041;-76
2023/05/17 00:25:45;;;;;;;4.78;1.98;;;;;;;;;;5055644;28;20131;-78
2023/05/17 00:28:12;;;;;;;5.05;2.28;;;;;;;;;;5055187;28;20067;-77
2023/05/17 00:30:39;;;;;;;5.05;2.22;;;;;;;;;;5055296;28;20132;-78
2023/05/17 00:33:05;;;;;;;4.53;2.10;;;;;;;;;;5055107;28;20491;-79
2023/05/17 00:35:32;;;;;;;7.60;2.67;;;;;;;;;;5055452;28;20072;-77
2023/05/17 00:37:58;;;;;;;6.65;2.28;;;;;;;;;;5054893;28;20088;-77
2023/05/17 00:40:25;;;;;;;5.05;2.15;;;;;;;;;;5055109;28;20041;-77
2023/05/17 00:42:53;;;;;;;8.30;2.85;;;;;;;;;;5054833;28;20076;-77
2023/05/17 00:45:20;;;;;;;6.40;2.10;;;;;;;;;;5054887;28;20127;-78
2023/05/17 00:47:46;;;;;;;6.80;2.55;;;;;;;;;;5054679;28;20048;-77
2023/05/17 00:50:13;;;;;;;4.25;2.28;;;;;;;;;;5055036;28;20056;-76
2023/05/17 00:52:40;;;;;;;4.63;2.20;;;;;;;;;;5054679;28;20055;-76
2023/05/17 00:55:08;;;;;;;3.85;1.70;;;;;;;;;;5054887;28;20053;-77
2023/05/17 00:57:35;;;;;;;5.47;2.47;;;;;;;;;;5054950;28;20110;-77
2023/05/17 01:00:04;;;;;;;6.25;2.10;;;;;;;;;;5054605;28;20049;-76
2023/05/17 01:02:30;;;;;;;4.32;2.00;;;;;;;;;;5054690;28;20099;-76
2023/05/17 01:04:57;;;;;;;4.32;2.10;;;;;;;;;;5054686;28;20128;-76
2023/05/17 01:07:24;;;;;;;5.00;2.03;;;;;;;;;;5054360;28;20507;-76
2023/05/17 01:09:51;;;;;;;3.85;2.30;;;;;;;;;;5054639;28;20472;-77
2023/05/17 01:12:27;;;;;;;6.57;2.20;;;;;;;;;;5054411;28;20147;-77
2023/05/17 01:15:05;;;;;;;6.38;2.88;;;;;;;;;;5054628;28;20053;-77
2023/05/17 01:17:40;;;;;;;6.00;2.45;;;;;;;;;;5055294;28;20045;-77
2023/05/17 01:20:18;;;;;;;4.88;2.90;;;;;;;;;;5055119;28;20055;-77
2023/05/17 01:22:53;;;;;;;4.70;2.35;;;;;;;;;;5054749;28;20123;-77
2023/05/17 01:25:32;;;;;;;8.13;3.05;;;;;;;;;;5054696;28;20057;-77
2023/05/17 01:28:02;;;;;;;6.70;2.42;;;;;;;;;;5054442;28;20388;-78
2023/05/17 01:30:32;;;;;;;5.35;2.33;;;;;;;;;;5054359;28;20135;-78
2023/05/17 01:33:00;;;;;;;7.07;2.60;;;;;;;;;;5054870;28;20049;-77
2023/05/17 01:35:27;;;;;;;7.18;2.40;;;;;;;;;;5055185;28;20290;-77
2023/05/17 01:37:54;;;;;;;4.63;2.10;;;;;;;;;;5058677;28;20106;-77
2023/05/17 01:40:21;;;;;;;4.70;3.58;;;;;;;;;;5077942;28;20079;-78
2023/05/17 01:42:52;;;;;;;6.15;2.75;;;;;;;;;;5074796;28;20108;-77
2023/05/17 01:45:24;;;;;;;4.13;2.30;;;;;;;;;;5054787;28;20108;-76
2023/05/17 01:48:00;;;;;;;7.28;3.33;;;;;;;;;;5054639;28;20142;-76
2023/05/17 01:50:30;;;;;;;5.15;2.63;;;;;;;;;;5054353;28;20397;-77
2023/05/17 01:53:03;;;;;;;5.40;2.33;;;;;;;;;;5054760;28;20041;-76
2023/05/17 01:55:38;;;;;;;5.75;2.80;;;;;;;;;;5054616;28;20059;-78
2023/05/17 01:58:08;;;;;;;5.18;2.50;;;;;;;;;;5055762;28;20128;-77
2023/05/17 02:00:38;;;;;;;8.70;3.63;;;;;;;;;;5056857;28;20053;-77
2023/05/17 02:03:05;;;;;;;5.28;2.67;;;;;;;;;;5054205;28;20286;-77
2023/05/17 02:05:32;;;;;;;5.50;2.53;;;;;;;;;;5054384;28;20135;-76
2023/05/17 02:07:58;;;;;;;6.30;2.78;;;;;;;;;;5054262;28;20079;-79
2023/05/17 02:10:25;;;;;;;6.80;2.78;;;;;;;;;;5054934;28;20124;-77
2023/05/17 02:12:51;;;;;;;5.82;2.95;;;;;;;;;;5053838;28;20124;-77
2023/05/17 02:15:18;;;;;;;5.97;2.53;;;;;;;;;;5054545;28;20052;-78
2023/05/17 02:17:46;;;;;;;6.50;2.58;;;;;;;;;;5055417;28;20083;-77
2023/05/17 02:20:13;;;;;;;6.53;3.20;;;;;;;;;;5053767;28;20041;-76
2023/05/17 02:22:39;;;;;;;6.13;2.90;;;;;;;;;;5053916;28;20133;-76
2023/05/17 02:25:07;;;;;;;5.72;2.97;;;;;;;;;;5054024;28;20131;-77
2023/05/17 02:27:34;;;;;;;6.28;2.75;;;;;;;;;;5053668;28;20060;-77
2023/05/17 02:30:01;;;;;;;4.57;2.70;;;;;;;;;;5053633;28;20072;-77
2023/05/17 02:32:28;;;;;;;5.97;3.30;;;;;;;;;;5052778;28;20051;-77
2023/05/17 02:34:56;;;;;;;5.93;3.00;;;;;;;;;;5053626;28;20512;-77
2023/05/17 02:37:22;;;;;;;5.30;2.85;;;;;;;;;;5053423;28;20223;-77
2023/05/17 02:39:49;;;;;;;6.10;3.22;;;;;;;;;;5053912;28;20051;-75
2023/05/17 02:42:16;;;;;;;7.88;2.83;;;;;;;;;;5053764;28;20133;-76
2023/05/17 02:44:42;;;;;;;8.10;3.08;;;;;;;;;;5054032;28;20045;-77
2023/05/17 02:47:09;;;;;;;7.47;2.90;;;;;;;;;;5054562;28;20124;-77
2023/05/17 02:49:36;;;;;;;6.25;2.97;;;;;;;;;;5054751;28;20380;-77
2023/05/17 02:52:04;;;;;;;5.18;2.63;;;;;;;;;;5054619;28;20049;-77
2023/05/17 02:54:31;;;;;;;5.15;2.75;;;;;;;;;;5054605;28;20515;-78
2023/05/17 02:56:57;;;;;;;7.55;2.60;;;;;;;;;;5054337;28;20136;-78
2023/05/17 02:59:24;;;;;;;6.97;2.83;;;;;;;;;;5054039;28;20411;-77
2023/05/17 03:01:51;;;;;;;7.10;2.90;;;;;;;;;;5054571;28;20059;-77
2023/05/17 03:04:19;;;;;;;5.43;2.70;;;;;;;;;;5054757;28;20079;-77
2023/05/17 03:06:45;;;;;;;8.90;2.97;;;;;;;;;;5054647;28;20045;-76
2023/05/17 03:09:13;;;;;;;7.10;2.88;;;;;;;;;;5053402;28;20041;-77
2023/05/17 03:11:40;;;;;;;4.50;2.40;;;;;;;;;;5056606;28;20114;-76
2023/05/17 03:14:06;;;;;;;4.78;2.55;;;;;;;;;;5056159;28;20105;-77
2023/05/17 03:16:33;;;;;;;4.57;2.42;;;;;;;;;;5057896;28;20064;-76
2023/05/17 03:19:00;;;;;;;8.57;2.83;;;;;;;;;;5056733;28;20103;-76
2023/05/17 03:21:27;;;;;;;7.13;2.75;;;;;;;;;;5057085;28;20076;-77
2023/05/17 03:23:53;;;;;;;6.60;2.55;;;;;;;;;;5056668;28;20120;-77
2023/05/17 03:26:22;;;;;;;6.15;2.30;;;;;;;;;;5057276;28;20040;-76
2023/05/17 03:28:49;;;;;;;5.18;2.53;;;;;;;;;;5054795;28;20044;-77
2023/05/17 03:31:17;;;;;;;5.45;2.03;;;;;;;;;;5055778;28;20135;-77
2023/05/17 03:33:44;;;;;;;4.50;2.40;;;;;;;;;;5060961;28;20144;-76
2023/05/17 03:36:11;;;;;;;3.42;1.98;;;;;;;;;;5060216;28;20108;-77
2023/05/17 03:38:37;;;;;;;4.72;2.03;;;;;;;;;;5059520;28;20049;-77
2023/05/17 03:41:04;;;;;;;7.35;2.30;;;;;;;;;;5057182;28;20397;-76
2023/05/17 03:43:32;;;;;;;4.95;1.98;;;;;;;;;;5055071;28;20052;-77
2023/05/17 03:45:59;;;;;;;5.00;2.25;;;;;;;;;;5053354;28;20049;-76
2023/05/17 03:48:26;;;;;;;3.35;1.83;;;;;;;;;;5052807;28;20069;-76
2023/05/17 03:50:52;;;;;;;3.72;2.38;;;;;;;;;;5052230;28;20045;-77
2023/05/17 03:53:19;;;;;;;6.20;2.42;;;;;;;;;;5052081;28;20128;-75
2023/05/17 03:55:46;;;;;;;4.10;2.28;;;;;;;;;;5051893;28;20053;-77
2023/05/17 03:58:12;;;;;;;4.90;2.08;;;;;;;;;;5051860;28;20055;-76
2023/05/17 04:00:40;;;;;;;5.45;2.20;;;;;;;;;;5052179;28;20048;-77
2023/05/17 04:03:07;;;;;;;6.75;1.90;;;;;;;;;;5039660;28;20100;-76
2023/05/17 04:05:34;;;;;;;4.22;2.22;;;;;;;;;;5031767;28;20046;-77
2023/05/17 04:08:00;;;;;;;4.80;2.00;;;;;;;;;;5031863;28;20077;-77
2023/05/17 04:10:27;;;;;;;4.40;1.90;;;;;;;;;;5032363;28;20045;-78
2023/05/17 04:12:54;;;;;;;3.83;1.77;;;;;;;;;;5031994;28;20129;-78
2023/05/17 04:15:20;;;;;;;6.22;2.20;;;;;;;;;;5032294;28;20049;-76
2023/05/17 04:17:48;;;;;;;4.13;1.95;;;;;;;;;;5031680;28;20415;-77
2023/05/17 04:20:15;;;;;;;5.00;2.13;;;;;;;;;;5031942;28;20132;-77
2023/05/17 04:22:42;;;;;;;4.28;2.08;;;;;;;;;;5031824;28;20041;-77
2023/05/17 04:25:09;;;;;;;4.32;1.98;;;;;;;;;;5031958;28;20052;-76
2023/05/17 04:27:36;;;;;;;4.20;1.95;;;;;;;;;;5031726;28;20057;-76
2023/05/17 04:30:03;;;;;;;4.10;1.80;;;;;;;;;;5031719;28;20132;-77
2023/05/17 04:32:29;;;;;;;4.85;2.13;;;;;;;;;;5123629;22;20051;-78
2023/05/17 04:34:58;;;;;;;3.55;1.67;;;;;;;;;;5094248;28;20087;-78
2023/05/17 04:37:24;;;;;;;2.75;1.75;;;;;;;;;;5094747;28;20044;-78
2023/05/17 04:39:51;;;;;;;3.42;1.60;;;;;;;;;;5095397;28;20141;-78
2023/05/17 04:42:18;;;;;;;5.40;2.05;;;;;;;;;;5095140;28;20390;-78
2023/05/17 04:44:45;;;;;;;4.78;1.80;;;;;;;;;;5095154;28;20044;-78
2023/05/17 04:47:12;;;;;;;4.78;1.70;;;;;;;;;;5094604;28;20555;-78
2023/05/17 04:49:39;;;;;;;4.57;1.83;;;;;;;;;;5094269;28;20050;-77
2023/05/17 04:52:07;;;;;;;3.08;1.58;;;;;;;;;;5093615;28;20113;-78
2023/05/17 04:54:33;;;;;;;3.22;1.73;;;;;;;;;;5094694;28;20093;-78
2023/05/17 04:57:00;;;;;;;5.53;1.95;;;;;;;;;;5096940;28;20522;-78
2023/05/17 04:59:27;;;;;;;4.22;1.90;;;;;;;;;;5097679;28;20479;-78
2023/05/17 05:01:54;;;;;;;4.97;2.33;;;;;;;;;;5099328;28;20519;-78
2023/05/17 05:04:20;;;;;;;4.20;2.05;;;;;;;;;;5117497;28;20127;-78
2023/05/17 05:06:47;;;;;;;4.53;1.83;;;;;;;;;;5117528;28;20126;-78
2023/05/17 05:09:15;;;;;;;4.18;1.88;;;;;;;;;;5118585;28;20103;-78
2023/05/17 05:11:42;;;;;;;3.90;1.73;;;;;;;;;;5116782;28;20085;-77
2023/05/17 05:14:08;;;;;;;3.83;1.60;;;;;;;;;;5115664;28;20043;-78
2023/05/17 05:16:36;;;;;;;3.42;1.60;;;;;;;;;;5119728;28;20083;-77
2023/05/17 05:19:02;;;;;;;5.13;1.70;;;;;;;;;;5121101;28;20126;-77
2023/05/17 05:21:30;;;;;;;3.03;1.80;;;;;;;;;;5119644;28;20104;-77
2023/05/17 05:23:57;;;;;;;5.78;1.98;;;;;;;;;;5117228;28;20131;-77
2023/05/17 05:26:24;;;;;;;5.07;1.60;;;;;;;;;;5115707;28;20043;-76
2023/05/17 05:28:51;;;;;;;2.80;1.60;;;;;;;;;;5116078;28;20069;-77
2023/05/17 05:31:18;;;;;;;3.63;1.73;;;;;;;;;;5115169;28;20103;-77
2023/05/17 05:33:44;;;;;;;5.82;1.67;;;;;;;;;;5115515;28;20131;-77
2023/05/17 05:36:11;;;;;;;6.53;1.88;;;;;;;;;;5114523;28;20426;-76
2023/05/17 05:38:38;;;;;;;6.85;2.75;;;;;;;;;;5114868;28;20054;-77
2023/05/17 05:41:04;;;;;;;3.75;1.88;;;;;;;;;;5114832;28;20043;-77
2023/05/17 05:43:34;;;;;;;4.53;1.50;;;;;;;;;;5115127;28;20054;-77
2023/05/17 05:46:01;;;;;;;5.68;1.83;;;;;;;;;;5115048;28;20052;-77
2023/05/17 05:48:28;;;;;;;4.68;1.90;;;;;;;;;;5115694;28;20148;-77
2023/05/17 05:50:54;;;;;;;4.18;1.65;;;;;;;;;;5114872;28;20046;-77
2023/05/17 05:53:21;;;;;;;3.25;1.50;;;;;;;;;;5114522;28;20056;-78
2023/05/17 05:55:48;;;;;;;3.85;1.73;;;;;;;;;;5115027;28;20481;-77
2023/05/17 05:58:14;;;;;;;4.10;1.88;;;;;;;;;;5114755;28;20075;-77
2023/05/17 06:00:42;;;;;;;2.70;1.58;;;;;;;;;;5115149;28;20512;-78
2023/05/17 06:03:09;;;;;;;3.20;1.95;;;;;;;;;;5116573;28;20135;-78
2023/05/17 06:05:37;;;;;;;3.85;1.42;;;;;;;;;;5116034;28;20051;-77
2023/05/17 06:08:03;;;;;;;3.83;1.80;;;;;;;;;;5115731;28;20039;-77
2023/05/17 06:10:30;;;;;;;4.25;1.50;;;;;;;;;;5123731;28;20058;-79
2023/05/17 06:12:57;;;;;;;5.93;1.63;;;;;;;;;;5115132;28;20139;-77
2023/05/17 06:15:23;;;;;;;3.65;1.50;;;;;;;;;;5114283;28;20055;-77
2023/05/17 06:17:51;;;;;;;3.45;1.52;;;;;;;;;;5114472;28;20130;-77
2023/05/17 06:20:18;;;;;;;3.70;1.85;;;;;;;;;;5114224;28;20470;-78
2023/05/17 06:22:45;;;;;;;5.38;1.83;;;;;;;;;;5114367;28;20134;-76
2023/05/17 06:25:11;;;;;;;4.68;1.63;;;;;;;;;;5114147;28;20054;-77
2023/05/17 06:27:38;;;;;;;3.50;1.40;;;;;;;;;;5113937;28;20090;-77
2023/05/17 06:30:06;;;;;;;4.45;1.52;;;;;;;;;;5114839;28;20050;-79
2023/05/17 06:32:32;;;;;;;3.03;1.35;;;;;;;;;;5114897;28;20052;-77
2023/05/17 06:35:00;;;;;;;5.18;1.90;;;;;;;;;;5115851;28;20047;-77
2023/05/17 06:37:27;;;;;;;4.35;1.90;;;;;;;;;;5117932;28;20048;-78
2023/05/17 06:40:03;;;;;;;3.92;1.40;;;;;;;;;;5117719;28;20043;-78
2023/05/17 06:42:29;;;;;;;3.42;1.50;;;;;;;;;;5117343;28;20047;-78
2023/05/17 06:44:56;;;;;;;4.53;1.65;;;;;;;;;;5116547;28;20098;-78
2023/05/17 06:47:23;;;;;;;3.78;1.55;;;;;;;;;;5119360;28;20082;-78
2023/05/17 06:49:49;;;;;;;3.97;2.22;;;;;;;;;;5116287;28;20672;-78
2023/05/17 06:52:17;;;;;;;6.00;2.78;;;;;;;;;;5117150;28;20071;-78
2023/05/17 06:54:44;;;;;;;4.53;1.63;;;;;;;;;;5116101;28;20463;-78
2023/05/17 06:57:11;;;;;;;3.97;1.90;;;;;;;;;;5116279;28;20086;-78
2023/05/17 06:59:38;;;;;;;4.35;2.10;;;;;;;;;;5115143;28;20482;-79
2023/05/17 07:02:04;;;;;;;4.47;2.30;;;;;;;;;;5115623;28;20506;-77
2023/05/17 07:04:31;;;;;;;4.63;1.50;;;;;;;;;;5129052;28;20075;-76
2023/05/17 07:06:58;;;;;;;6.82;1.60;;;;;;;;;;5128945;28;20043;-76
2023/05/17 07:09:26;;;;;;;3.67;1.80;;;;;;;;;;5123784;28;20130;-77
2023/05/17 07:11:52;;;;;;;3.47;1.73;;;;;;;;;;5112670;28;20077;-76
2023/05/17 07:14:19;;;;;;;4.07;1.60;;;;;;;;;;5113844;28;20071;-78
2023/05/17 07:16:46;;;;;;;3.60;1.30;;;;;;;;;;5114780;28;20135;-78
2023/05/17 07:19:13;;;;;;;3.92;1.30;;;;;;;;;;5114828;28;20127;-78
2023/05/17 07:21:40;;;;;;;4.13;1.73;;;;;;;;;;5114703;28;20466;-78
2023/05/17 07:24:08;;;;;;;4.13;1.63;;;;;;;;;;5115004;28;20050;-78
2023/05/17 07:26:36;;;;;;;3.30;1.65;;;;;;;;;;5114202;28;20050;-78
2023/05/17 07:29:02;;;;;;;4.28;1.92;;;;;;;;;;5114367;28;20046;-78
2023/05/17 07:31:29;;;;;;;5.40;1.70;;;;;;;;;;5114060;28;20071;-78
2023/05/17 07:33:56;;;;;;;6.03;1.58;;;;;;;;;;5114126;28;20090;-78
2023/05/17 07:36:22;;;;;;;4.55;1.42;;;;;;;;;;5114037;28;20142;-78
2023/05/17 07:38:49;;;;;;;4.10;1.83;;;;;;;;;;5114751;28;20054;-78
2023/05/17 07:41:20;;;;;;;4.30;1.80;;;;;;;;;;5114436;28;20050;-78
2023/05/17 07:43:48;;;;;;;6.70;2.65;;;;;;;;;;5113630;28;20104;-78
2023/05/17 07:46:15;;;;;;;4.10;1.95;;;;;;;;;;5113068;28;20150;-77
2023/05/17 07:48:42;;;;;;;6.38;2.08;;;;;;;;;;5112849;28;20126;-78
2023/05/17 07:51:08;;;;;;;4.30;1.95;;;;;;;;;;5112353;28;20482;-77
2023/05/17 07:53:35;;;;;;;3.50;1.92;;;;;;;;;;5112661;28;20043;-77
2023/05/17 07:56:02;;;;;;;4.57;2.20;;;;;;;;;;5114538;28;20087;-77
2023/05/17 07:58:28;;;;;;;5.25;2.10;;;;;;;;;;5113790;28;20119;-77
2023/05/17 08:00:56;;;;;;;4.45;2.15;;;;;;;;;;5113030;28;20050;-77
2023/05/17 08:03:23;;;;;;;4.18;2.15;;;;;;;;;;5114053;28;20070;-77
2023/05/17 08:05:49;;;;;;;5.80;1.95;;;;;;;;;;5116363;28;20103;-77
2023/05/17 08:08:16;;;;;;;4.22;1.90;;;;;;;;;;5113100;28;20050;-79
2023/05/17 08:10:43;;;;;;;6.22;1.70;;;;;;;;;;5116574;28;20135;-77
2023/05/17 08:13:09;;;;;;;4.72;2.22;;;;;;;;;;5115211;28;20094;-77
2023/05/17 08:15:36;;;;;;;4.38;1.52;;;;;;;;;;5116034;28;20063;-77
2023/05/17 08:18:04;;;;;;;5.85;2.08;;;;;;;;;;5119775;28;20123;-78
2023/05/17 08:20:31;;;;;;;3.38;1.80;;;;;;;;;;5120131;28;20051;-77
2023/05/17 08:22:58;;;;;;;3.65;1.67;;;;;;;;;;5120030;28;20039;-77
2023/05/17 08:25:24;;;;;;;5.40;1.73;;;;;;;;;;5121250;28;20043;-77
2023/05/17 08:27:51;;;;;;;4.13;2.00;;;;;;;;;;5118607;28;20050;-77
2023/05/17 08:30:18;;;;;;;4.85;1.90;;;;;;;;;;5116720;28;20126;-77
2023/05/17 08:32:44;;;;;;;3.85;1.38;;;;;;;;;;5118228;28;20103;-77
2023/05/17 08:35:13;;;;;;;3.80;1.20;;;;;;;;;;5118821;28;20123;-77
2023/05/17 08:37:39;;;;;;;6.15;2.13;;;;;;;;;;5119164;28;20126;-77
2023/05/17 08:40:07;;;;;;;3.17;1.40;;;;;;;;;;5118932;28;20090;-77
2023/05/17 08:42:34;;;;;;;4.35;1.50;;;;;;;;;;5118219;28;20047;-78
2023/05/17 08:45:01;;;;;;;3.40;1.40;;;;;;;;;;5117244;28;20462;-77
2023/05/17 08:47:32;;;;;;;5.80;1.65;;;;;;;;;;5116026;28;20406;-77
2023/05/17 08:49:59;;;;;;;4.68;1.77;;;;;;;;;;5116253;28;20043;-77
2023/05/17 08:52:31;;;;;;;2.80;1.60;;;;;;;;;;5115470;28;20561;-77
2023/05/17 08:54:58;;;;;;;4.45;1.58;;;;;;;;;;5116039;28;20048;-77
2023/05/17 08:57:27;;;;;;;3.25;1.50;;;;;;;;;;5115938;28;20054;-77
2023/05/17 08:59:55;;;;;;;5.38;1.95;;;;;;;;;;5115695;28;20419;-77
2023/05/17 09:02:23;;;;;;;3.22;1.40;;;;;;;;;;5115177;28;20063;-77
2023/05/17 09:04:54;;;;;;;4.80;1.70;;;;;;;;;;5118777;28;20058;-77
2023/05/17 09:07:21;;;;;;;4.57;1.80;;;;;;;;;;5115916;28;20043;-77
2023/05/17 09:09:51;;;;;;;5.60;2.45;;;;;;;;;;5115539;28;20044;-77
2023/05/17 09:12:18;;;;;;;4.07;1.83;;;;;;;;;;5115452;28;20043;-77
2023/05/17 09:14:44;;;;;;;5.13;2.17;;;;;;;;;;5115289;28;20696;-77
2023/05/17 09:17:14;;;;;;;3.30;1.70;;;;;;;;;;5115204;28;20058;-77
2023/05/17 09:19:44;;;;;;;3.72;1.45;;;;;;;;;;5115508;28;20044;-77
2023/05/17 09:22:12;;;;;;;3.90;1.70;;;;;;;;;;5115442;28;20118;-77
2023/05/17 09:24:40;;;;;;;3.42;1.30;;;;;;;;;;5116067;28;20050;-77
2023/05/17 09:27:08;;;;;;;3.95;1.70;;;;;;;;;;5115384;28;20043;-77
2023/05/17 09:29:35;;;;;;;3.60;1.65;;;;;;;;;;5115466;28;20054;-77
2023/05/17 09:32:15;;;;;;;4.53;1.80;;;;;;;;;;5115385;28;20130;-77
2023/05/17 09:34:42;;;;;;;8.40;1.67;;;;;;;;;;5115415;28;20079;-77
2023/05/17 09:37:14;;;;;;;3.65;1.65;;;;;;;;;;5115426;28;20048;-77
2023/05/17 09:39:41;;;;;;;4.70;1.80;;;;;;;;;;5114899;28;20040;-77
2023/05/17 09:42:08;;;;;;;3.55;1.70;;;;;;;;;;5114619;28;20043;-77
2023/05/17 09:44:46;;;;;;;4.07;1.60;;;;;;;;;;5114542;28;20040;-76
2023/05/17 09:47:22;;;;;;;3.53;1.42;;;;;;;;;;5114815;28;20043;-77
2023/05/17 09:49:49;;;;;;;3.88;1.90;;;;;;;;;;5115678;28;20048;-78
2023/05/17 09:52:18;;;;;;;3.38;1.40;;;;;;;;;;5114752;28;20047;-78
2023/05/17 09:54:52;;;;;;;4.85;1.70;;;;;;;;;;5114354;28;20055;-77
2023/05/17 09:57:20;;;;;;;2.95;1.80;;;;;;;;;;5114122;28;20051;-77
2023/05/17 09:59:47;;;;;;;4.35;1.67;;;;;;;;;;5114399;28;20056;-77
2023/05/17 10:02:22;;;;;;;4.72;1.60;;;;;;;;;;5114137;28;20040;-77
2023/05/17 10:04:50;;;;;;;7.47;1.42;;;;;;;;;;5115486;28;20048;-76
2023/05/17 10:07:20;;;;;;;5.10;1.50;;;;;;;;;;5115077;28;20055;-77
2023/05/17 10:09:47;;;;;;;5.55;1.92;;;;;;;;;;5114891;28;20154;-77
2023/05/17 10:12:17;;;;;;;3.40;1.48;;;;;;;;;;5115329;28;20066;-77
2023/05/17 10:14:46;;;;;;;4.13;2.10;;;;;;;;;;5115202;28;20252;-77
2023/05/17 10:17:12;;;;;;;3.88;1.35;;;;;;;;;;5114494;28;20087;-77
2023/05/17 10:19:40;;;;;;;5.68;1.40;;;;;;;;;;5114373;28;20512;-77
2023/05/17 10:22:07;;;;;;;4.10;1.77;;;;;;;;;;5114478;28;20048;-77
2023/05/17 10:24:35;;;;;;;2.13;1.00;;;;;;;;;;5117182;28;20048;-77
2023/05/17 10:27:02;;;;;;;3.13;1.15;;;;;;;;;;5116920;28;20589;-76
2023/05/17 10:29:31;;;;;;;2.65;1.15;;;;;;;;;;5119990;28;20086;-77
2023/05/17 10:32:03;;;;;;;3.28;1.00;;;;;;;;;;5116181;28;20044;-77
2023/05/17 10:34:31;;;;;;;5.47;1.20;;;;;;;;;;5114039;28;20538;-77
2023/05/17 10:36:59;;;;;;;4.38;1.05;;;;;;;;;;5114879;28;20120;-77
2023/05/17 10:39:26;;;;;;;4.40;1.52;;;;;;;;;;5114995;28;20118;-77
2023/05/17 10:41:54;;;;;;;3.72;1.23;;;;;;;;;;5113882;28;20717;-76
2023/05/17 10:44:22;;;;;;;6.35;1.27;;;;;;;;;;5113535;28;20630;-77
2023/05/17 10:46:53;;;;;;;2.63;1.10;;;;;;;;;;5114049;28;20379;-77
2023/05/17 10:49:25;;;;;;;4.45;1.48;;;;;;;;;;5114646;28;20050;-77
2023/05/17 10:51:52;;;;;;;2.95;1.15;;;;;;;;;;5114534;28;20051;-77
2023/05/17 10:54:19;;;;;;;5.63;1.38;;;;;;;;;;5113732;28;20135;-77
2023/05/17 10:56:51;;;;;;;4.32;1.00;;;;;;;;;;5114727;28;20126;-76
2023/05/17 10:59:23;;;;;;;3.30;1.17;;;;;;;;;;5114224;28;20054;-76
2023/05/17 11:01:55;;;;;;;2.72;1.20;;;;;;;;;;5113942;28;20046;-77
2023/05/17 11:04:27;;;;;;;4.22;1.20;;;;;;;;;;5113932;28;20127;-76
2023/05/17 11:07:25;;;;;;;5.32;1.70;;;;;;;;;;5114472;28;20039;-77
2023/05/17 11:09:54;;;;;;;3.08;1.05;;;;;;;;;;5114491;28;20130;-77
2023/05/17 11:12:30;;;;;;;2.97;1.30;;;;;;;;;;5114615;28;20076;-77
2023/05/17 11:14:58;;;;;;;2.70;1.20;;;;;;;;;;5114798;28;20063;-77
2023/05/17 11:17:26;;;;;;;3.85;1.40;;;;;;;;;;5114725;28;20057;-77
2023/05/17 11:20:01;;;;;;;3.10;1.10;;;;;;;;;;5114157;28;20083;-77
2023/05/17 11:22:35;;;;;;;3.90;1.70;;;;;;;;;;5113996;28;20063;-78
2023/05/17 11:25:07;;;;;;;2.47;1.40;;;;;;;;;;5119147;28;20050;-78
2023/05/17 11:27:37;;;;;;;3.78;1.42;;;;;;;;;;5117700;28;20043;-76
2023/05/17 11:30:18;;;;;;;4.22;1.33;;;;;;;;;;5113952;28;20122;-78
2023/05/17 11:32:50;;;;;;;4.40;1.70;;;;;;;;;;5114673;28;20087;-77
2023/05/17 11:35:19;;;;;;;5.97;1.98;;;;;;;;;;5116562;28;20122;-77
2023/05/17 11:37:46;;;;;;;5.70;1.90;;;;;;;;;;5113991;28;20051;-77
2023/05/17 11:40:14;;;;;;;4.22;2.17;;;;;;;;;;5115395;28;20048;-77
2023/05/17 11:42:41;;;;;;;6.20;2.83;;;;;;;;;;5116857;28;20082;-78
2023/05/17 11:45:08;;;;;;;3.70;1.67;;;;;;;;;;5119934;28;20156;-78
2023/05/17 11:47:40;;;;;;;6.10;1.80;;;;;;;;;;5116198;28;20048;-78
2023/05/17 11:50:08;;;;;;;4.38;1.58;;;;;;;;;;5114070;28;20449;-77
2023/05/17 11:52:36;;;;;;;3.42;1.33;;;;;;;;;;5113890;28;20057;-78
2023/05/17 11:55:05;;;;;;;4.63;1.77;;;;;;;;;;5115172;28;20104;-77
2023/05/17 11:57:32;;;;;;;4.53;2.17;;;;;;;;;;5124376;28;20098;-77
2023/05/17 12:00:00;;;;;;;5.40;1.60;;;;;;;;;;5125754;28;20078;-77
2023/05/17 12:02:27;;;;;;;4.20;2.15;;;;;;;;;;5119945;28;20486;-77
2023/05/17 12:04:54;;;;;;;4.70;1.80;;;;;;;;;;5114399;28;20063;-77
2023/05/17 12:07:21;;;;;;;3.35;1.40;;;;;;;;;;5118456;28;20051;-77
2023/05/17 12:09:49;;;;;;;5.43;1.73;;;;;;;;;;5119524;28;20044;-77
2023/05/17 12:12:17;;;;;;;4.82;1.83;;;;;;;;;;5119493;28;20078;-77
2023/05/17 12:14:44;;;;;;;5.82;1.83;;;;;;;;;;5120180;28;20043;-77
2023/05/17 12:17:17;;;;;;;4.63;1.67;;;;;;;;;;5122016;28;20048;-77
2023/05/17 12:19:44;;;;;;;4.35;1.90;;;;;;;;;;5119409;28;20043;-77
2023/05/17 12:22:12;;;;;;;4.45;1.45;;;;;;;;;;5119458;28;20044;-77
2023/05/17 12:24:39;;;;;;;4.88;1.85;;;;;;;;;;5119663;28;20067;-77
2023/05/17 12:27:07;;;;;;;6.45;2.05;;;;;;;;;;5119073;28;20131;-77
2023/05/17 12:29:34;;;;;;;4.00;2.10;;;;;;;;;;5119354;28;20131;-77
2023/05/17 12:32:02;;;;;;;4.72;2.05;;;;;;;;;;5119104;28;20127;-77
2023/05/17 12:34:29;;;;;;;4.57;1.63;;;;;;;;;;5119966;28;20130;-77
2023/05/17 12:36:56;;;;;;;5.32;1.75;;;;;;;;;;5119454;28;20218;-77
2023/05/17 12:39:23;;;;;;;6.10;2.78;;;;;;;;;;5119572;28;20067;-78
2023/05/17 12:41:51;;;;;;;4.90;1.77;;;;;;;;;;5119647;28;20054;-78
2023/05/17 12:44:19;;;;;;;4.85;1.85;;;;;;;;;;5119902;28;20272;-77
2023/05/17 12:46:52;;;;;;;4.70;1.80;;;;;;;;;;5119796;28;20168;-78
2023/05/17 12:49:20;;;;;;;4.25;1.63;;;;;;;;;;5119574;28;20173;-78
2023/05/17 12:51:48;;;;;;;4.97;2.25;;;;;;;;;;5119539;28;20078;-78
2023/05/17 12:54:26;;;;;;;5.60;2.17;;;;;;;;;;5119935;28;20050;-78
2023/05/17 12:56:52;;;;;;;4.22;2.17;;;;;;;;;;5120255;28;20075;-78
2023/05/17 12:59:24;;;;;;;4.70;1.88;;;;;;;;;;5121226;28;20107;-78
2023/05/17 13:01:51;;;;;;;4.13;2.10;;;;;;;;;;5118541;28;20391;-79
2023/05/17 13:04:20;;;;;;;4.80;2.00;;;;;;;;;;5117210;28;20135;-76
2023/05/17 13:06:48;;;;;;;3.50;1.50;;;;;;;;;;5116514;28;20050;-75
2023/05/17 13:09:17;;;;;;;4.45;1.90;;;;;;;;;;5117080;28;20447;-79
2023/05/17 13:11:43;;;;;;;4.25;2.00;;;;;;;;;;5122101;28;20044;-78
2023/05/17 13:14:12;;;;;;;4.22;1.60;;;;;;;;;;5122640;28;20051;-78
2023/05/17 13:16:41;;;;;;;4.55;1.98;;;;;;;;;;5122584;28;20047;-78
2023/05/17 13:19:14;;;;;;;6.00;2.30;;;;;;;;;;5123842;28;20130;-78
2023/05/17 13:21:41;;;;;;;4.68;1.80;;;;;;;;;;5123587;28;20047;-78
2023/05/17 13:24:09;;;;;;;3.80;1.75;;;;;;;;;;5118148;28;20101;-77
2023/05/17 13:26:36;;;;;;;4.20;2.00;;;;;;;;;;5116483;28;20395;-77
2023/05/17 13:29:03;;;;;;;6.03;2.22;;;;;;;;;;5116672;28;20088;-77
2023/05/17 13:31:29;;;;;;;5.25;2.15;;;;;;;;;;5116109;28;20548;-77
2023/05/17 13:33:57;;;;;;;4.35;2.10;;;;;;;;;;5117018;28;20048;-77
2023/05/17 13:36:24;;;;;;;4.97;1.88;;;;;;;;;;5119134;28;20085;-78
2023/05/17 13:38:51;;;;;;;6.00;1.90;;;;;;;;;;5119184;28;20082;-78
2023/05/17 13:41:17;;;;;;;5.85;2.10;;;;;;;;;;5118213;28;20123;-79
2023/05/17 13:43:44;;;;;;;5.70;2.15;;;;;;;;;;5117712;28;20047;-78
2023/05/17 13:46:11;;;;;;;5.05;2.42;;;;;;;;;;5117893;28;20047;-78
2023/05/17 13:48:38;;;;;;;4.20;2.35;;;;;;;;;;5117479;28;20046;-78
2023/05/17 13:51:06;;;;;;;5.07;2.28;;;;;;;;;;5117917;28;20573;-78
2023/05/17 13:53:33;;;;;;;4.75;1.98;;;;;;;;;;5117530;28;20107;-76
2023/05/17 13:55:59;;;;;;;5.43;2.17;;;;;;;;;;5118385;28;20043;-77
2023/05/17 13:58:26;;;;;;;4.70;1.90;;;;;;;;;;5117790;28;20086;-78
2023/05/17 14:00:53;;;;;;;4.43;1.90;;;;;;;;;;5119281;28;20076;-78
2023/05/17 14:03:20;;;;;;;5.75;2.08;;;;;;;;;;5118977;28;20043;-79
2023/05/17 14:05:49;;;;;;;4.10;2.10;;;;;;;;;;5120522;28;20043;-78
2023/05/17 14:08:17;;;;;;;4.43;2.00;;;;;;;;;;5119791;28;20081;-78
2023/05/17 14:10:43;;;;;;;4.55;2.30;;;;;;;;;;5118312;28;20327;-79
2023/05/17 14:13:11;;;;;;;5.45;2.17;;;;;;;;;;5120746;28;20122;-78
2023/05/17 14:15:38;;;;;;;4.50;2.00;;;;;;;;;;5122962;28;20050;-77
2023/05/17 14:18:06;;;;;;;4.45;1.92;;;;;;;;;;5128745;28;20048;-77
2023/05/17 14:20:33;;;;;;;4.68;2.30;;;;;;;;;;5128807;28;20150;-78
2023/05/17 14:23:00;;;;;;;7.78;2.22;;;;;;;;;;5127879;28;20044;-77
2023/05/17 14:25:28;;;;;;;4.72;1.85;;;;;;;;;;5125804;28;20047;-77
2023/05/17 14:27:55;;;;;;;4.45;2.00;;;;;;;;;;5123962;28;20063;-77
2023/05/17 14:30:22;;;;;;;4.40;2.08;;;;;;;;;;5119272;28;20040;-77
2023/05/17 14:32:51;;;;;;;4.13;1.90;;;;;;;;;;5116639;28;20130;-78
2023/05/17 14:35:17;;;;;;;5.78;2.08;;;;;;;;;;5123759;28;20537;-78
2023/05/17 14:37:44;;;;;;;3.97;2.30;;;;;;;;;;5114876;28;20126;-77
2023/05/17 14:40:12;;;;;;;4.55;2.05;;;;;;;;;;5115069;28;20055;-77
2023/05/17 14:42:40;;;;;;;6.03;2.20;;;;;;;;;;5114549;28;20054;-77
2023/05/17 14:45:08;;;;;;;5.38;1.83;;;;;;;;;;5115689;28;20044;-77
2023/05/17 14:47:35;;;;;;;4.05;2.35;;;;;;;;;;5118492;28;20120;-77